createdAt,value
2018-06-15T00:00:40.012Z,17.94
2018-06-15T00:01:39.993Z,17.97
2018-06-15T00:02:40.013Z,17.99
2018-06-15T00:03:40.019Z,17.94
2018-06-15T00:04:40.004Z,17.95
2018-06-15T00:05:40.014Z,17.97
2018-06-15T00:06:40.021Z,17.89
2018-06-15T00:07:40.005Z,17.89
2018-06-15T00:08:40.016Z,17.89
2018-06-15T00:09:39.998Z,17.87
2018-06-15T00:10:40.012Z,17.81
2018-06-15T00:11:39.999Z,17.77
2018-06-15T00:12:40.047Z,17.77
2018-06-15T00:13:40.006Z,17.73
2018-06-15T00:14:40.020Z,17.77
2018-06-15T00:15:40.030Z,17.69
2018-06-15T00:16:40.043Z,17.69
2018-06-15T00:17:40.052Z,17.69
2018-06-15T00:18:40.022Z,17.67
2018-06-15T00:19:40.019Z,17.69
2018-06-15T00:20:40.029Z,17.64
2018-06-15T00:21:40.105Z,17.71
2018-06-15T00:22:40.036Z,17.69
2018-06-15T00:23:40.054Z,17.63
2018-06-15T00:24:40.010Z,17.67
2018-06-15T00:25:40.019Z,17.73
2018-06-15T00:26:40.152Z,17.78
2018-06-15T00:27:40.020Z,17.82
2018-06-15T00:28:40.030Z,17.82
2018-06-15T00:29:40.117Z,17.81
2018-06-15T00:30:40.001Z,17.84
2018-06-15T00:31:40.022Z,17.81
2018-06-15T00:32:42.822Z,17.77
2018-06-15T00:33:40.010Z,17.81
2018-06-15T00:34:40.036Z,17.85
2018-06-15T00:35:40.078Z,17.89
2018-06-15T00:36:40.121Z,17.87
2018-06-15T00:37:40.021Z,17.89
2018-06-15T00:38:40.208Z,17.92
2018-06-15T00:39:40.125Z,17.91
2018-06-15T00:40:40.067Z,17.88
2018-06-15T00:41:40.161Z,17.89
2018-06-15T00:42:40.127Z,17.87
2018-06-15T00:43:40.119Z,17.92
2018-06-15T00:44:40.120Z,17.94
2018-06-15T00:45:40.107Z,17.94
2018-06-15T00:46:40.078Z,17.95
2018-06-15T00:47:40.141Z,17.98
2018-06-15T00:48:40.262Z,17.98
2018-06-15T00:49:40.167Z,18.01
2018-06-15T00:50:40.171Z,17.97
2018-06-15T00:51:40.041Z,17.99
2018-06-15T00:52:40.464Z,18.01
2018-06-15T00:53:40.029Z,18.01
2018-06-15T00:54:40.113Z,18.04
2018-06-15T00:55:40.057Z,18.02
2018-06-15T00:56:40.151Z,18.06
2018-06-15T00:57:40.053Z,18.05
2018-06-15T00:58:40.089Z,18.05
2018-06-15T00:59:40.081Z,18.05
2018-06-15T01:00:40.034Z,18.06
2018-06-15T01:01:40.050Z,18.05
2018-06-15T01:02:40.103Z,18.06
2018-06-15T01:03:40.068Z,18.04
2018-06-15T01:04:40.029Z,18.06
2018-06-15T01:05:40.053Z,18.01
2018-06-15T01:06:40.052Z,18.01
2018-06-15T01:07:40.053Z,17.98
2018-06-15T01:08:40.056Z,17.95
2018-06-15T01:09:40.060Z,17.95
2018-06-15T01:10:40.043Z,17.95
2018-06-15T01:11:40.061Z,17.95
2018-06-15T01:12:40.061Z,17.98
2018-06-15T01:13:40.053Z,17.97
2018-06-15T01:14:40.042Z,17.98
2018-06-15T01:15:40.055Z,17.97
2018-06-15T01:16:40.041Z,17.95
2018-06-15T01:17:40.053Z,17.97
2018-06-15T01:18:40.044Z,17.98
2018-06-15T01:19:40.039Z,17.98
2018-06-15T01:20:40.186Z,17.98
2018-06-15T01:21:40.062Z,17.94
2018-06-15T01:22:40.089Z,17.92
2018-06-15T01:23:40.059Z,17.95
2018-06-15T01:24:40.243Z,17.92
2018-06-15T01:25:40.062Z,17.94
2018-06-15T01:26:40.121Z,17.95
2018-06-15T01:27:40.065Z,17.94
2018-06-15T01:28:40.072Z,17.97
2018-06-15T01:29:40.069Z,17.98
2018-06-15T01:30:40.052Z,17.97
2018-06-15T01:31:40.108Z,17.99
2018-06-15T01:32:40.060Z,18.01
2018-06-15T01:33:40.063Z,18.01
2018-06-15T01:34:40.066Z,17.98
2018-06-15T01:35:40.067Z,17.99
2018-06-15T01:36:40.262Z,17.99
2018-06-15T01:37:40.281Z,17.92
2018-06-15T01:38:40.246Z,17.87
2018-06-15T01:39:40.152Z,17.88
2018-06-15T01:40:40.060Z,17.92
2018-06-15T01:41:40.096Z,17.89
2018-06-15T01:42:40.085Z,17.91
2018-06-15T01:43:40.081Z,17.87
2018-06-15T01:44:40.122Z,17.89
2018-06-15T01:45:40.207Z,17.89
2018-06-15T01:46:40.493Z,17.91
2018-06-15T01:47:40.118Z,17.94
2018-06-15T01:48:40.243Z,17.92
2018-06-15T01:49:40.105Z,17.92
2018-06-15T01:50:40.094Z,17.95
2018-06-15T01:51:40.092Z,17.97
2018-06-15T01:52:40.080Z,17.97
2018-06-15T01:53:40.261Z,17.94
2018-06-15T01:54:40.250Z,17.94
2018-06-15T01:55:40.073Z,17.89
2018-06-15T01:56:40.126Z,17.87
2018-06-15T01:57:40.095Z,17.87
2018-06-15T01:58:40.104Z,17.88
2018-06-15T01:59:40.136Z,17.91
2018-06-15T02:00:40.227Z,17.89
2018-06-15T02:01:40.141Z,17.92
2018-06-15T02:02:40.110Z,17.92
2018-06-15T02:03:40.071Z,17.92
2018-06-15T02:04:40.110Z,17.92
2018-06-15T02:05:40.209Z,17.94
2018-06-15T02:06:40.083Z,17.97
2018-06-15T02:07:40.432Z,17.95
2018-06-15T02:08:40.113Z,17.97
2018-06-15T02:09:40.206Z,17.95
2018-06-15T02:10:40.071Z,17.97
2018-06-15T02:11:40.089Z,17.97
2018-06-15T02:12:40.098Z,17.98
2018-06-15T02:13:40.079Z,17.95
2018-06-15T02:14:40.114Z,17.95
2018-06-15T02:15:40.084Z,17.95
2018-06-15T02:16:40.092Z,17.97
2018-06-15T02:17:40.086Z,17.97
2018-06-15T02:18:40.104Z,17.98
2018-06-15T02:19:40.072Z,17.98
2018-06-15T02:20:40.077Z,17.98
2018-06-15T02:21:40.071Z,17.95
2018-06-15T02:22:40.095Z,17.97
2018-06-15T02:23:40.073Z,17.97
2018-06-15T02:24:40.085Z,17.97
2018-06-15T02:25:40.086Z,17.95
2018-06-15T02:26:40.090Z,17.94
2018-06-15T02:27:40.086Z,17.92
2018-06-15T02:28:40.092Z,17.94
2018-06-15T02:29:40.084Z,17.91
2018-06-15T02:30:40.124Z,17.89
2018-06-15T02:31:40.134Z,17.88
2018-06-15T02:32:40.415Z,17.89
2018-06-15T02:33:40.127Z,17.89
2018-06-15T02:34:40.081Z,17.88
2018-06-15T02:35:40.081Z,17.89
2018-06-15T02:36:40.198Z,17.89
2018-06-15T02:37:40.141Z,17.91
2018-06-15T02:38:40.144Z,17.91
2018-06-15T02:39:40.129Z,17.88
2018-06-15T02:40:40.243Z,17.91
2018-06-15T02:41:40.125Z,17.92
2018-06-15T02:42:40.353Z,17.92
2018-06-15T02:43:40.130Z,17.92
2018-06-15T02:44:40.115Z,17.94
2018-06-15T02:45:40.094Z,17.91
2018-06-15T02:46:40.123Z,17.88
2018-06-15T02:47:40.110Z,17.89
2018-06-15T02:48:40.099Z,17.87
2018-06-15T02:49:40.119Z,17.87
2018-06-15T02:50:40.119Z,17.84
2018-06-15T02:51:40.335Z,17.84
2018-06-15T02:52:40.258Z,17.82
2018-06-15T02:53:40.088Z,17.77
2018-06-15T02:54:40.109Z,17.76
2018-06-15T02:55:40.370Z,17.76
2018-06-15T02:56:40.132Z,17.77
2018-06-15T02:57:40.244Z,17.74
2018-06-15T02:58:40.105Z,17.74
2018-06-15T02:59:40.133Z,17.74
2018-06-15T03:00:40.107Z,17.71
2018-06-15T03:01:40.191Z,17.73
2018-06-15T03:02:40.126Z,17.7
2018-06-15T03:03:40.127Z,17.67
2018-06-15T03:04:40.159Z,17.64
2018-06-15T03:05:40.124Z,17.64
2018-06-15T03:06:40.118Z,17.61
2018-06-15T03:07:40.090Z,17.58
2018-06-15T03:08:40.193Z,17.54
2018-06-15T03:09:40.110Z,17.46
2018-06-15T03:10:40.109Z,17.4
2018-06-15T03:11:40.122Z,17.36
2018-06-15T03:12:40.102Z,17.37
2018-06-15T03:13:40.132Z,17.36
2018-06-15T03:14:40.255Z,17.33
2018-06-15T03:15:40.234Z,17.35
2018-06-15T03:16:40.143Z,17.3
2018-06-15T03:17:40.147Z,17.29
2018-06-15T03:18:40.124Z,17.3
2018-06-15T03:19:40.183Z,17.32
2018-06-15T03:20:40.129Z,17.3
2018-06-15T03:21:40.111Z,17.29
2018-06-15T03:22:40.127Z,17.32
2018-06-15T03:23:40.140Z,17.33
2018-06-15T03:24:40.113Z,17.32
2018-06-15T03:25:40.099Z,17.29
2018-06-15T03:26:40.136Z,17.33
2018-06-15T03:27:40.118Z,17.32
2018-06-15T03:28:40.123Z,17.33
2018-06-15T03:29:40.134Z,17.32
2018-06-15T03:30:40.120Z,17.33
2018-06-15T03:31:40.114Z,17.29
2018-06-15T03:32:40.129Z,17.32
2018-06-15T03:33:40.109Z,17.32
2018-06-15T03:34:40.338Z,17.35
2018-06-15T03:35:40.158Z,17.32
2018-06-15T03:36:40.126Z,17.33
2018-06-15T03:37:40.252Z,17.36
2018-06-15T03:38:40.184Z,17.33
2018-06-15T03:39:40.314Z,17.36
2018-06-15T03:40:40.161Z,17.36
2018-06-15T03:41:40.119Z,17.37
2018-06-15T03:42:40.105Z,17.36
2018-06-15T03:43:40.316Z,17.36
2018-06-15T03:44:40.117Z,17.37
2018-06-15T03:45:40.135Z,17.37
2018-06-15T03:46:40.116Z,17.37
2018-06-15T03:47:40.240Z,17.4
2018-06-15T03:48:40.220Z,17.39
2018-06-15T03:49:40.122Z,17.4
2018-06-15T03:50:40.252Z,17.39
2018-06-15T03:51:40.174Z,17.4
2018-06-15T03:52:40.155Z,17.39
2018-06-15T03:53:40.143Z,17.42
2018-06-15T03:54:40.168Z,17.4
2018-06-15T03:55:40.246Z,17.42
2018-06-15T03:56:40.127Z,17.44
2018-06-15T03:57:40.132Z,17.44
2018-06-15T03:58:40.242Z,17.47
2018-06-15T03:59:40.143Z,17.47
2018-06-15T04:00:40.147Z,17.44
2018-06-15T04:01:40.149Z,17.44
2018-06-15T04:02:40.202Z,17.43
2018-06-15T04:03:40.179Z,17.43
2018-06-15T04:04:40.144Z,17.46
2018-06-15T04:05:40.131Z,17.43
2018-06-15T04:06:40.227Z,17.43
2018-06-15T04:07:40.259Z,17.43
2018-06-15T04:08:40.145Z,17.43
2018-06-15T04:09:40.168Z,17.42
2018-06-15T04:10:40.210Z,17.39
2018-06-15T04:11:40.498Z,17.42
2018-06-15T04:12:40.196Z,17.37
2018-06-15T04:13:40.154Z,17.39
2018-06-15T04:14:40.348Z,17.37
2018-06-15T04:15:40.144Z,17.37
2018-06-15T04:16:40.217Z,17.39
2018-06-15T04:17:40.324Z,17.36
2018-06-15T04:18:40.157Z,17.37
2018-06-15T04:19:40.181Z,17.36
2018-06-15T04:20:40.199Z,17.36
2018-06-15T04:21:40.158Z,17.36
2018-06-15T04:22:40.142Z,17.35
2018-06-15T04:23:40.140Z,17.36
2018-06-15T04:24:40.147Z,17.35
2018-06-15T04:25:40.153Z,17.33
2018-06-15T04:26:40.190Z,17.35
2018-06-15T04:27:40.145Z,17.35
2018-06-15T04:28:40.205Z,17.33
2018-06-15T04:29:40.172Z,17.35
2018-06-15T04:30:40.137Z,17.36
2018-06-15T04:31:40.153Z,17.37
2018-06-15T04:32:40.338Z,17.37
2018-06-15T04:33:40.211Z,17.39
2018-06-15T04:34:40.177Z,17.39
2018-06-15T04:35:40.189Z,17.37
2018-06-15T04:36:40.148Z,17.37
2018-06-15T04:37:40.171Z,17.4
2018-06-15T04:38:40.174Z,17.42
2018-06-15T04:39:40.144Z,17.42
2018-06-15T04:40:40.177Z,17.43
2018-06-15T04:41:40.165Z,17.43
2018-06-15T04:42:40.219Z,17.46
2018-06-15T04:43:40.154Z,17.47
2018-06-15T04:44:40.282Z,17.44
2018-06-15T04:45:40.146Z,17.49
2018-06-15T04:46:40.197Z,17.47
2018-06-15T04:47:40.245Z,17.5
2018-06-15T04:48:40.150Z,17.5
2018-06-15T04:49:40.254Z,17.54
2018-06-15T04:50:40.206Z,17.54
2018-06-15T04:51:40.182Z,17.56
2018-06-15T04:52:40.196Z,17.57
2018-06-15T04:53:40.250Z,17.58
2018-06-15T04:54:40.241Z,17.6
2018-06-15T04:55:40.178Z,17.61
2018-06-15T04:56:40.228Z,17.63
2018-06-15T04:57:40.189Z,17.63
2018-06-15T04:58:40.168Z,17.64
2018-06-15T04:59:40.212Z,17.64
2018-06-15T05:00:40.203Z,17.61
2018-06-15T05:01:40.216Z,17.64
2018-06-15T05:02:40.265Z,17.66
2018-06-15T05:03:40.202Z,17.64
2018-06-15T05:04:40.162Z,17.66
2018-06-15T05:05:40.263Z,17.69
2018-06-15T05:06:40.234Z,17.67
2018-06-15T05:07:40.193Z,17.66
2018-06-15T05:08:40.221Z,17.67
2018-06-15T05:09:40.163Z,17.66
2018-06-15T05:10:40.179Z,17.69
2018-06-15T05:11:40.197Z,17.73
2018-06-15T05:12:40.198Z,17.76
2018-06-15T05:13:40.180Z,17.76
2018-06-15T05:14:40.345Z,17.74
2018-06-15T05:15:40.186Z,17.7
2018-06-15T05:16:40.164Z,17.63
2018-06-15T05:17:40.170Z,17.66
2018-06-15T05:18:40.174Z,17.69
2018-06-15T05:19:40.200Z,17.69
2018-06-15T05:20:40.165Z,17.7
2018-06-15T05:21:40.182Z,17.73
2018-06-15T05:22:40.187Z,17.77
2018-06-15T05:23:40.233Z,17.77
2018-06-15T05:24:40.190Z,17.81
2018-06-15T05:25:40.230Z,17.82
2018-06-15T05:26:40.218Z,17.85
2018-06-15T05:27:40.395Z,17.89
2018-06-15T05:28:40.178Z,17.91
2018-06-15T05:29:40.354Z,17.92
2018-06-15T05:30:40.201Z,17.92
2018-06-15T05:31:40.195Z,17.94
2018-06-15T05:32:40.234Z,17.95
2018-06-15T05:33:40.280Z,17.97
2018-06-15T05:34:40.185Z,17.91
2018-06-15T05:35:40.323Z,17.91
2018-06-15T05:36:40.195Z,17.94
2018-06-15T05:37:40.188Z,17.94
2018-06-15T05:38:40.175Z,17.92
2018-06-15T05:39:40.184Z,17.92
2018-06-15T05:40:41.624Z,17.91
2018-06-15T05:41:40.216Z,17.89
2018-06-15T05:42:40.445Z,17.85
2018-06-15T05:43:40.221Z,17.87
2018-06-15T05:44:40.194Z,17.87
2018-06-15T05:45:40.190Z,17.88
2018-06-15T05:46:40.412Z,17.89
2018-06-15T05:47:40.190Z,17.92
2018-06-15T05:48:40.206Z,17.92
2018-06-15T05:49:40.175Z,17.97
2018-06-15T05:50:40.190Z,17.99
2018-06-15T05:51:40.413Z,18.01
2018-06-15T05:52:40.203Z,18.01
2018-06-15T05:53:40.181Z,18.02
2018-06-15T05:54:40.240Z,18.01
2018-06-15T05:55:40.363Z,18.01
2018-06-15T05:56:40.228Z,18.04
2018-06-15T05:57:40.191Z,18.06
2018-06-15T05:58:40.206Z,18.08
2018-06-15T05:59:40.262Z,18.08
2018-06-15T06:00:40.313Z,18.11
2018-06-15T06:01:40.209Z,18.12
2018-06-15T06:02:40.217Z,18.16
2018-06-15T06:03:40.203Z,18.17
2018-06-15T06:04:40.192Z,18.2
2018-06-15T06:05:40.226Z,18.22
2018-06-15T06:06:40.233Z,18.23
2018-06-15T06:07:40.326Z,18.29
2018-06-15T06:08:40.199Z,18.32
2018-06-15T06:09:40.287Z,18.35
2018-06-15T06:10:40.306Z,18.29
2018-06-15T06:11:40.226Z,18.22
2018-06-15T06:12:40.411Z,18.26
2018-06-15T06:13:40.313Z,18.29
2018-06-15T06:14:40.237Z,18.3
2018-06-15T06:15:40.253Z,18.36
2018-06-15T06:16:40.229Z,18.39
2018-06-15T06:17:40.311Z,18.44
2018-06-15T06:18:40.400Z,18.44
2018-06-15T06:19:40.590Z,18.44
2018-06-15T06:20:40.538Z,18.44
2018-06-15T06:21:40.424Z,18.5
2018-06-15T06:22:40.264Z,18.53
2018-06-15T06:23:40.230Z,18.52
2018-06-15T06:24:40.313Z,18.54
2018-06-15T06:25:40.280Z,18.52
2018-06-15T06:26:40.269Z,18.54
2018-06-15T06:27:40.269Z,18.27
2018-06-15T06:28:40.233Z,18.23
2018-06-15T06:29:40.233Z,18.15
2018-06-15T06:30:40.213Z,18.12
2018-06-15T06:31:40.256Z,18.09
2018-06-15T06:32:40.484Z,18.09
2018-06-15T06:33:40.245Z,18.15
2018-06-15T06:34:40.283Z,18.23
2018-06-15T06:35:40.319Z,18.32
2018-06-15T06:36:40.234Z,18.39
2018-06-15T06:37:40.268Z,18.46
2018-06-15T06:38:40.436Z,18.49
2018-06-15T06:39:40.236Z,18.53
2018-06-15T06:40:40.249Z,18.56
2018-06-15T06:41:40.216Z,18.61
2018-06-15T06:42:40.260Z,18.57
2018-06-15T06:43:40.409Z,18.56
2018-06-15T06:44:40.266Z,18.54
2018-06-15T06:45:40.211Z,18.54
2018-06-15T06:46:40.515Z,18.59
2018-06-15T06:47:40.234Z,18.59
2018-06-15T06:48:40.314Z,18.63
2018-06-15T06:49:40.263Z,18.7
2018-06-15T06:50:40.578Z,18.74
2018-06-15T06:51:40.235Z,18.8
2018-06-15T06:52:40.259Z,18.84
2018-06-15T06:53:40.276Z,18.87
2018-06-15T06:54:40.238Z,18.89
2018-06-15T06:55:40.218Z,18.92
2018-06-15T06:56:40.252Z,18.92
2018-06-15T06:57:40.235Z,18.98
2018-06-15T06:58:40.248Z,18.99
2018-06-15T06:59:40.333Z,19.05
2018-06-15T07:00:40.273Z,19.06
2018-06-15T07:01:40.283Z,19.1
2018-06-15T07:02:40.241Z,19.13
2018-06-15T07:03:40.234Z,19.19
2018-06-15T07:04:40.241Z,19.23
2018-06-15T07:05:40.236Z,19.27
2018-06-15T07:06:40.248Z,19.26
2018-06-15T07:07:40.270Z,19.29
2018-06-15T07:08:40.274Z,19.3
2018-06-15T07:09:40.360Z,19.33
2018-06-15T07:10:40.237Z,19.33
2018-06-15T07:11:40.235Z,19.34
2018-06-15T07:12:40.344Z,19.36
2018-06-15T07:13:40.435Z,19.4
2018-06-15T07:14:40.265Z,19.4
2018-06-15T07:15:40.263Z,19.46
2018-06-15T07:16:40.442Z,19.46
2018-06-15T07:17:40.267Z,19.5
2018-06-15T07:18:40.280Z,19.49
2018-06-15T07:19:40.358Z,19.54
2018-06-15T07:20:40.265Z,19.58
2018-06-15T07:21:40.262Z,19.58
2018-06-15T07:22:40.287Z,19.62
2018-06-15T07:23:40.466Z,19.62
2018-06-15T07:24:40.300Z,19.65
2018-06-15T07:25:40.246Z,19.68
2018-06-15T07:26:40.310Z,19.71
2018-06-15T07:27:40.254Z,19.71
2018-06-15T07:28:40.272Z,19.72
2018-06-15T07:29:40.279Z,19.75
2018-06-15T07:30:40.314Z,19.77
2018-06-15T07:31:40.260Z,19.77
2018-06-15T07:32:40.244Z,19.7
2018-06-15T07:33:40.278Z,19.67
2018-06-15T07:34:40.532Z,19.49
2018-06-15T07:35:40.249Z,19.56
2018-06-15T07:36:40.286Z,19.58
2018-06-15T07:37:40.283Z,19.61
2018-06-15T07:38:40.277Z,19.65
2018-06-15T07:39:40.284Z,19.7
2018-06-15T07:40:40.261Z,19.74
2018-06-15T07:41:40.276Z,19.75
2018-06-15T07:42:40.266Z,19.79
2018-06-15T07:43:47.227Z,19.82
2018-06-15T07:44:40.254Z,19.85
2018-06-15T07:45:40.254Z,19.91
2018-06-15T07:46:40.359Z,19.92
2018-06-15T07:47:40.285Z,19.96
2018-06-15T07:48:40.297Z,19.99
2018-06-15T07:49:40.383Z,20.02
2018-06-15T07:50:40.301Z,20.06
2018-06-15T07:51:40.325Z,20.08
2018-06-15T07:52:40.329Z,20.02
2018-06-15T07:53:40.434Z,19.99
2018-06-15T07:54:40.351Z,19.82
2018-06-15T07:55:40.494Z,19.86
2018-06-15T07:56:40.299Z,19.78
2018-06-15T07:57:40.268Z,19.84
2018-06-15T07:58:40.273Z,19.89
2018-06-15T07:59:40.423Z,19.93
2018-06-15T08:00:40.290Z,20.01
2018-06-15T08:01:41.010Z,20.04
2018-06-15T08:02:40.277Z,20.05
2018-06-15T08:03:40.268Z,20.12
2018-06-15T08:04:40.393Z,20.13
2018-06-15T08:05:40.263Z,20.08
2018-06-15T08:06:40.253Z,20.06
2018-06-15T08:07:40.260Z,20.11
2018-06-15T08:08:40.287Z,20.09
2018-06-15T08:09:40.273Z,20.15
2018-06-15T08:10:40.282Z,20.15
2018-06-15T08:11:40.298Z,20.17
2018-06-15T08:12:40.260Z,20.06
2018-06-15T08:13:40.300Z,19.92
2018-06-15T08:14:40.291Z,19.96
2018-06-15T08:15:40.294Z,20.04
2018-06-15T08:16:40.284Z,20.06
2018-06-15T08:17:40.286Z,20.11
2018-06-15T08:18:40.337Z,20.15
2018-06-15T08:19:40.278Z,20.2
2018-06-15T08:20:40.427Z,20.23
2018-06-15T08:21:40.315Z,20.16
2018-06-15T08:22:40.285Z,20.12
2018-06-15T08:23:40.281Z,20.2
2018-06-15T08:24:40.298Z,20.19
2018-06-15T08:25:43.516Z,20.19
2018-06-15T08:26:40.456Z,20.29
2018-06-15T08:27:40.400Z,20.37
2018-06-15T08:28:40.292Z,20.46
2018-06-15T08:29:40.336Z,20.47
2018-06-15T08:30:40.295Z,20.51
2018-06-15T08:31:40.356Z,20.55
2018-06-15T08:32:40.317Z,20.62
2018-06-15T08:33:40.301Z,20.7
2018-06-15T08:34:40.332Z,20.74
2018-06-15T08:35:40.294Z,20.78
2018-06-15T08:36:40.448Z,20.77
2018-06-15T08:37:40.490Z,20.81
2018-06-15T08:38:40.293Z,20.81
2018-06-15T08:39:40.327Z,20.79
2018-06-15T08:40:40.292Z,20.85
2018-06-15T08:41:40.332Z,20.87
2018-06-15T08:42:40.300Z,20.91
2018-06-15T08:43:40.312Z,20.96
2018-06-15T08:44:41.042Z,21.05
2018-06-15T08:45:40.330Z,21.1
2018-06-15T08:46:40.369Z,21.02
2018-06-15T08:47:40.302Z,20.96
2018-06-15T08:48:40.328Z,21.05
2018-06-15T08:49:40.326Z,21.12
2018-06-15T08:50:40.382Z,21.16
2018-06-15T08:51:40.327Z,21.19
2018-06-15T08:52:40.511Z,20.85
2018-06-15T08:53:40.412Z,20.85
2018-06-15T08:54:40.456Z,20.82
2018-06-15T08:55:40.371Z,20.91
2018-06-15T08:56:40.361Z,21.01
2018-06-15T08:57:40.378Z,21.12
2018-06-15T08:58:40.389Z,21.17
2018-06-15T08:59:40.383Z,21.24
2018-06-15T09:00:40.333Z,21.24
2018-06-15T09:01:40.452Z,21.24
2018-06-15T09:02:40.330Z,21.27
2018-06-15T09:03:40.355Z,21.34
2018-06-15T09:04:40.341Z,21.4
2018-06-15T09:05:40.328Z,21.41
2018-06-15T09:06:40.499Z,21.46
2018-06-15T09:07:40.371Z,21.46
2018-06-15T09:08:40.343Z,21.43
2018-06-15T09:09:40.379Z,21.4
2018-06-15T09:10:40.355Z,21.39
2018-06-15T09:11:40.347Z,21.33
2018-06-15T09:12:40.336Z,21.33
2018-06-15T09:13:40.359Z,21.37
2018-06-15T09:14:40.354Z,21.37
2018-06-15T09:15:40.515Z,21.34
2018-06-15T09:16:40.380Z,21.34
2018-06-15T09:17:40.381Z,21.33
2018-06-15T09:18:40.346Z,21.36
2018-06-15T09:19:40.330Z,21.39
2018-06-15T09:20:40.347Z,21.37
2018-06-15T09:21:40.396Z,21.22
2018-06-15T09:22:40.370Z,21.12
2018-06-15T09:23:40.373Z,21.15
2018-06-15T09:24:40.360Z,21.17
2018-06-15T09:25:40.434Z,21.17
2018-06-15T09:26:40.360Z,21.19
2018-06-15T09:27:40.352Z,21.19
2018-06-15T09:28:40.373Z,21.23
2018-06-15T09:29:40.357Z,21.19
2018-06-15T09:30:40.352Z,21.1
2018-06-15T09:31:40.359Z,21.09
2018-06-15T09:32:40.549Z,21.09
2018-06-15T09:33:40.596Z,21.07
2018-06-15T09:34:40.364Z,20.99
2018-06-15T09:35:40.355Z,21.02
2018-06-15T09:36:40.357Z,21.02
2018-06-15T09:37:40.350Z,21.05
2018-06-15T09:38:40.371Z,21.05
2018-06-15T09:39:40.409Z,21.06
2018-06-15T09:40:40.392Z,21.09
2018-06-15T09:41:40.410Z,21.12
2018-06-15T09:42:40.393Z,21.13
2018-06-15T09:43:40.373Z,21.17
2018-06-15T09:44:40.369Z,21.17
2018-06-15T09:45:40.374Z,21.15
2018-06-15T09:46:40.393Z,21.15
2018-06-15T09:47:40.376Z,21.12
2018-06-15T09:48:40.450Z,21.16
2018-06-15T09:49:40.393Z,21.19
2018-06-15T09:50:40.415Z,21.23
2018-06-15T09:51:40.507Z,21.24
2018-06-15T09:52:40.440Z,21.3
2018-06-15T09:53:40.388Z,21.37
2018-06-15T09:54:40.496Z,21.37
2018-06-15T09:55:40.492Z,21.29
2018-06-15T09:56:40.420Z,21.29
2018-06-15T09:57:40.405Z,21.36
2018-06-15T09:58:40.427Z,21.47
2018-06-15T09:59:40.384Z,21.54
2018-06-15T10:00:40.677Z,21.64
2018-06-15T10:01:40.418Z,21.41
2018-06-15T10:02:40.380Z,21.5
2018-06-15T10:03:40.409Z,21.54
2018-06-15T10:04:40.416Z,21.57
2018-06-15T10:05:40.503Z,21.61
2018-06-15T10:06:40.471Z,21.67
2018-06-15T10:07:40.444Z,21.68
2018-06-15T10:08:40.410Z,21.67
2018-06-15T10:09:40.406Z,21.65
2018-06-15T10:10:40.409Z,21.69
2018-06-15T10:11:40.406Z,21.64
2018-06-15T10:12:40.398Z,21.61
2018-06-15T10:13:40.414Z,21.69
2018-06-15T10:14:40.565Z,21.67
2018-06-15T10:15:40.447Z,21.67
2018-06-15T10:16:40.506Z,21.67
2018-06-15T10:17:40.636Z,21.74
2018-06-15T10:18:40.419Z,21.62
2018-06-15T10:19:40.418Z,21.64
2018-06-15T10:20:40.410Z,21.65
2018-06-15T10:21:40.430Z,21.65
2018-06-15T10:22:40.413Z,21.68
2018-06-15T10:23:40.443Z,21.69
2018-06-15T10:24:40.456Z,21.71
2018-06-15T10:25:40.435Z,21.71
2018-06-15T10:26:40.433Z,21.68
2018-06-15T10:27:40.447Z,21.61
2018-06-15T10:28:40.416Z,21.6
2018-06-15T10:29:40.438Z,21.54
2018-06-15T10:30:40.523Z,21.44
2018-06-15T10:31:40.434Z,21.4
2018-06-15T10:32:40.686Z,21.46
2018-06-15T10:33:40.439Z,21.49
2018-06-15T10:34:40.428Z,21.5
2018-06-15T10:35:40.440Z,21.51
2018-06-15T10:36:40.456Z,21.51
2018-06-15T10:37:40.469Z,21.58
2018-06-15T10:38:41.312Z,21.65
2018-06-15T10:39:41.605Z,21.68
2018-06-15T10:40:40.457Z,21.75
2018-06-15T10:41:40.472Z,21.68
2018-06-15T10:42:40.472Z,21.71
2018-06-15T10:43:40.587Z,21.77
2018-06-15T10:44:40.666Z,21.61
2018-06-15T10:45:40.660Z,21.6
2018-06-15T10:46:40.409Z,21.6
2018-06-15T10:47:40.542Z,21.65
2018-06-15T10:48:40.446Z,21.44
2018-06-15T10:49:40.457Z,21.44
2018-06-15T10:50:40.507Z,21.5
2018-06-15T10:51:40.772Z,21.56
2018-06-15T10:52:40.456Z,21.6
2018-06-15T10:53:40.594Z,21.57
2018-06-15T10:54:40.434Z,21.6
2018-06-15T10:55:40.444Z,21.57
2018-06-15T10:56:40.486Z,21.56
2018-06-15T10:57:40.523Z,21.67
2018-06-15T10:58:40.877Z,21.67
2018-06-15T10:59:41.348Z,21.69
2018-06-15T11:00:41.245Z,21.71
2018-06-15T11:01:41.458Z,21.75
2018-06-15T11:02:41.473Z,21.69
2018-06-15T11:03:41.204Z,21.74
2018-06-15T11:04:41.172Z,21.67
2018-06-15T11:05:41.255Z,21.64
2018-06-15T11:06:41.222Z,21.64
2018-06-15T11:07:41.191Z,21.65
2018-06-15T11:08:41.352Z,21.65
2018-06-15T11:09:41.345Z,21.65
2018-06-15T11:10:41.762Z,21.64
2018-06-15T11:11:41.314Z,21.67
2018-06-15T11:12:41.567Z,21.69
2018-06-15T11:13:41.877Z,21.74
2018-06-15T11:14:41.143Z,21.78
2018-06-15T11:15:41.460Z,21.84
2018-06-15T11:16:41.599Z,21.95
2018-06-15T11:17:41.109Z,22.02
2018-06-15T11:18:40.651Z,22.02
2018-06-15T11:19:40.478Z,22.01
2018-06-15T11:20:40.565Z,22.02
2018-06-15T11:21:40.512Z,22.03
2018-06-15T11:22:40.601Z,22.11
2018-06-15T11:23:40.662Z,22.12
2018-06-15T11:24:40.567Z,22.19
2018-06-15T11:25:40.572Z,21.99
2018-06-15T11:26:40.683Z,22.03
2018-06-15T11:27:40.538Z,22.09
2018-06-15T11:28:40.479Z,22.01
2018-06-15T11:29:40.520Z,22.02
2018-06-15T11:30:40.493Z,22.11
2018-06-15T11:31:40.514Z,22.15
2018-06-15T11:32:40.515Z,22.16
2018-06-15T11:33:40.511Z,22.15
2018-06-15T11:34:40.519Z,22.15
2018-06-15T11:35:40.502Z,22.22
2018-06-15T11:36:40.495Z,22.2
2018-06-15T11:37:40.539Z,22.17
2018-06-15T11:38:40.517Z,22.16
2018-06-15T11:39:40.511Z,22.2
2018-06-15T11:40:40.506Z,22.16
2018-06-15T11:41:40.539Z,22.12
2018-06-15T11:42:40.521Z,22.13
2018-06-15T11:43:40.500Z,22.12
2018-06-15T11:44:40.522Z,21.99
2018-06-15T11:45:40.537Z,21.96
2018-06-15T11:46:40.509Z,22.08
2018-06-15T11:47:40.516Z,22.2
2018-06-15T11:48:40.524Z,22.24
2018-06-15T11:49:40.531Z,22.17
2018-06-15T11:50:40.593Z,22.2
2018-06-15T11:51:40.589Z,22.22
2018-06-15T11:52:40.539Z,22.17
2018-06-15T11:53:40.546Z,22.09
2018-06-15T11:54:40.591Z,22.11
2018-06-15T11:55:40.554Z,22.22
2018-06-15T11:56:40.680Z,22.23
2018-06-15T11:57:40.652Z,22.26
2018-06-15T11:58:40.557Z,22.27
2018-06-15T11:59:40.717Z,22.22
2018-06-15T12:00:40.526Z,22.15
2018-06-15T12:01:40.690Z,22.19
2018-06-15T12:02:40.666Z,22.19
2018-06-15T12:03:40.627Z,22.23
2018-06-15T12:04:40.708Z,22.33
2018-06-15T12:05:40.537Z,22.41
2018-06-15T12:06:40.575Z,22.36
2018-06-15T12:07:40.722Z,22.44
2018-06-15T12:08:40.557Z,22.48
2018-06-15T12:09:40.549Z,22.34
2018-06-15T12:10:40.572Z,22.33
2018-06-15T12:11:40.716Z,22.36
2018-06-15T12:12:40.537Z,22.39
2018-06-15T12:13:40.583Z,22.33
2018-06-15T12:14:40.784Z,22.36
2018-06-15T12:15:40.594Z,22.41
2018-06-15T12:16:40.645Z,22.48
2018-06-15T12:17:40.730Z,22.5
2018-06-15T12:18:40.562Z,22.56
2018-06-15T12:19:40.725Z,22.54
2018-06-15T12:20:40.608Z,22.61
2018-06-15T12:21:40.616Z,22.65
2018-06-15T12:22:40.678Z,22.7
2018-06-15T12:23:40.582Z,22.71
2018-06-15T12:24:40.744Z,22.78
2018-06-15T12:25:40.590Z,22.86
2018-06-15T12:26:40.583Z,22.86
2018-06-15T12:27:40.568Z,23.12
2018-06-15T12:28:40.988Z,23.11
2018-06-15T12:29:40.719Z,23.13
2018-06-15T12:30:40.615Z,23.12
2018-06-15T12:31:40.597Z,23.15
2018-06-15T12:32:40.771Z,23.03
2018-06-15T12:33:40.607Z,23.01
2018-06-15T12:34:40.603Z,22.92
2018-06-15T12:35:40.563Z,22.88
2018-06-15T12:36:40.583Z,22.91
2018-06-15T12:37:40.627Z,22.98
2018-06-15T12:38:40.668Z,23.05
2018-06-15T12:39:40.734Z,23.15
2018-06-15T12:40:40.590Z,23.22
2018-06-15T12:41:40.578Z,23.15
2018-06-15T12:42:40.645Z,23.16
2018-06-15T12:43:40.594Z,23.15
2018-06-15T12:44:40.631Z,23.23
2018-06-15T12:45:40.687Z,23.3
2018-06-15T12:46:40.588Z,23.4
2018-06-15T12:47:40.596Z,23.48
2018-06-15T12:48:40.605Z,23.6
2018-06-15T12:49:40.632Z,23.69
2018-06-15T12:50:40.644Z,23.78
2018-06-15T12:51:40.633Z,23.69
2018-06-15T12:52:40.622Z,23.58
2018-06-15T12:53:40.731Z,23.71
2018-06-15T12:54:40.632Z,23.77